sensor_id;sensor_type;location;lat;lon;timestamp;P1;durP1;ratioP1;P2;durP2;ratioP2
70067;SDS011;57425;51.616;6.680;2022-11-20T00:01:24;10.20;;;5.80;;
70067;SDS011;57425;51.616;6.680;2022-11-20T00:03:51;12.00;;;5.70;;
70067;SDS011;57425;51.616;6.680;2022-11-20T00:06:18;11.23;;;5.73;;
70067;SDS011;57425;51.616;6.680;2022-11-20T00:08:45;12.87;;;5.73;;
70067;SDS011;57425;51.616;6.680;2022-11-20T00:11:29;10.70;;;5.53;;
70067;SDS011;57425;51.616;6.680;2022-11-20T00:13:57;12.70;;;5.07;;
70067;SDS011;57425;51.616;6.680;2022-11-20T00:16:26;8.20;;;4.60;;
70067;SDS011;57425;51.616;6.680;2022-11-20T00:18:53;10.33;;;5.67;;
70067;SDS011;57425;51.616;6.680;2022-11-20T00:21:20;14.03;;;6.17;;
70067;SDS011;57425;51.616;6.680;2022-11-20T00:23:47;9.33;;;5.23;;
70067;SDS011;57425;51.616;6.680;2022-11-20T00:26:15;12.83;;;6.37;;
70067;SDS011;57425;51.616;6.680;2022-11-20T00:28:43;13.13;;;6.60;;
70067;SDS011;57425;51.616;6.680;2022-11-20T00:31:13;11.77;;;5.60;;
70067;SDS011;57425;51.616;6.680;2022-11-20T00:33:40;10.00;;;5.50;;
70067;SDS011;57425;51.616;6.680;2022-11-20T00:36:07;11.90;;;6.67;;
70067;SDS011;57425;51.616;6.680;2022-11-20T00:38:38;10.77;;;5.53;;
70067;SDS011;57425;51.616;6.680;2022-11-20T00:41:05;16.07;;;6.47;;
70067;SDS011;57425;51.616;6.680;2022-11-20T00:43:36;12.87;;;6.33;;
70067;SDS011;57425;51.616;6.680;2022-11-20T00:46:09;9.07;;;4.90;;
70067;SDS011;57425;51.616;6.680;2022-11-20T00:48:38;13.90;;;5.60;;
70067;SDS011;57425;51.616;6.680;2022-11-20T00:51:04;13.27;;;6.23;;
70067;SDS011;57425;51.616;6.680;2022-11-20T00:53:30;12.63;;;5.40;;
70067;SDS011;57425;51.616;6.680;2022-11-20T00:55:59;10.33;;;5.87;;
70067;SDS011;57425;51.616;6.680;2022-11-20T00:58:34;13.70;;;7.00;;
70067;SDS011;57425;51.616;6.680;2022-11-20T01:01:01;10.30;;;5.40;;
70067;SDS011;57425;51.616;6.680;2022-11-20T01:03:39;13.13;;;5.87;;
70067;SDS011;57425;51.616;6.680;2022-11-20T01:06:08;8.57;;;5.37;;
70067;SDS011;57425;51.616;6.680;2022-11-20T01:08:36;11.40;;;5.13;;
70067;SDS011;57425;51.616;6.680;2022-11-20T01:11:03;10.00;;;6.00;;
70067;SDS011;57425;51.616;6.680;2022-11-20T01:13:31;10.87;;;5.90;;
70067;SDS011;57425;51.616;6.680;2022-11-20T01:16:13;11.03;;;5.57;;
70067;SDS011;57425;51.616;6.680;2022-11-20T01:18:41;10.83;;;5.03;;
70067;SDS011;57425;51.616;6.680;2022-11-20T01:21:10;13.30;;;6.30;;
70067;SDS011;57425;51.616;6.680;2022-11-20T01:23:38;11.93;;;5.43;;
70067;SDS011;57425;51.616;6.680;2022-11-20T01:26:07;13.27;;;6.37;;
70067;SDS011;57425;51.616;6.680;2022-11-20T01:28:37;15.30;;;6.27;;
70067;SDS011;57425;51.616;6.680;2022-11-20T01:31:14;9.90;;;5.27;;
70067;SDS011;57425;51.616;6.680;2022-11-20T01:33:40;12.93;;;6.67;;
70067;SDS011;57425;51.616;6.680;2022-11-20T01:36:07;13.97;;;7.07;;
70067;SDS011;57425;51.616;6.680;2022-11-20T01:38:33;16.07;;;6.70;;
70067;SDS011;57425;51.616;6.680;2022-11-20T01:40:59;13.10;;;5.80;;
70067;SDS011;57425;51.616;6.680;2022-11-20T01:43:24;9.97;;;6.17;;
70067;SDS011;57425;51.616;6.680;2022-11-20T01:48:44;13.23;;;6.10;;
70067;SDS011;57425;51.616;6.680;2022-11-20T01:51:26;10.63;;;5.77;;
70067;SDS011;57425;51.616;6.680;2022-11-20T01:54:05;12.53;;;6.27;;
70067;SDS011;57425;51.616;6.680;2022-11-20T01:56:37;11.67;;;6.33;;
70067;SDS011;57425;51.616;6.680;2022-11-20T01:59:07;10.87;;;5.70;;
70067;SDS011;57425;51.616;6.680;2022-11-20T02:01:34;10.07;;;5.27;;
70067;SDS011;57425;51.616;6.680;2022-11-20T02:04:00;14.33;;;6.50;;
70067;SDS011;57425;51.616;6.680;2022-11-20T02:09:07;12.50;;;5.93;;
70067;SDS011;57425;51.616;6.680;2022-11-20T02:11:33;10.20;;;5.93;;
70067;SDS011;57425;51.616;6.680;2022-11-20T02:13:58;13.63;;;6.33;;
70067;SDS011;57425;51.616;6.680;2022-11-20T02:16:26;14.63;;;7.00;;
70067;SDS011;57425;51.616;6.680;2022-11-20T02:18:55;13.47;;;6.50;;
70067;SDS011;57425;51.616;6.680;2022-11-20T02:21:24;12.47;;;5.37;;
70067;SDS011;57425;51.616;6.680;2022-11-20T02:23:59;9.67;;;5.37;;
70067;SDS011;57425;51.616;6.680;2022-11-20T02:26:30;9.67;;;5.83;;
70067;SDS011;57425;51.616;6.680;2022-11-20T02:28:58;13.73;;;5.90;;
70067;SDS011;57425;51.616;6.680;2022-11-20T02:31:26;11.53;;;6.10;;
70067;SDS011;57425;51.616;6.680;2022-11-20T02:33:56;17.37;;;5.70;;
70067;SDS011;57425;51.616;6.680;2022-11-20T02:36:22;12.40;;;5.63;;
70067;SDS011;57425;51.616;6.680;2022-11-20T02:38:50;11.37;;;5.50;;
70067;SDS011;57425;51.616;6.680;2022-11-20T02:41:16;12.70;;;5.40;;
70067;SDS011;57425;51.616;6.680;2022-11-20T02:43:41;10.57;;;5.90;;
70067;SDS011;57425;51.616;6.680;2022-11-20T02:46:07;10.33;;;5.17;;
70067;SDS011;57425;51.616;6.680;2022-11-20T02:48:33;15.10;;;6.37;;
70067;SDS011;57425;51.616;6.680;2022-11-20T02:50:59;12.00;;;6.03;;
70067;SDS011;57425;51.616;6.680;2022-11-20T02:53:25;9.73;;;6.03;;
70067;SDS011;57425;51.616;6.680;2022-11-20T02:55:50;13.27;;;5.97;;
70067;SDS011;57425;51.616;6.680;2022-11-20T02:58:16;11.43;;;6.13;;
70067;SDS011;57425;51.616;6.680;2022-11-20T03:00:42;10.47;;;6.20;;
70067;SDS011;57425;51.616;6.680;2022-11-20T03:03:07;10.93;;;5.93;;
70067;SDS011;57425;51.616;6.680;2022-11-20T03:05:34;14.33;;;6.47;;
70067;SDS011;57425;51.616;6.680;2022-11-20T03:07:59;12.20;;;6.30;;
70067;SDS011;57425;51.616;6.680;2022-11-20T03:10:25;12.10;;;6.07;;
70067;SDS011;57425;51.616;6.680;2022-11-20T03:12:54;12.33;;;6.27;;
70067;SDS011;57425;51.616;6.680;2022-11-20T03:15:20;12.83;;;6.37;;
70067;SDS011;57425;51.616;6.680;2022-11-20T03:17:47;13.20;;;6.43;;
70067;SDS011;57425;51.616;6.680;2022-11-20T03:20:13;13.37;;;6.17;;
70067;SDS011;57425;51.616;6.680;2022-11-20T03:22:38;13.93;;;7.33;;
70067;SDS011;57425;51.616;6.680;2022-11-20T03:25:04;14.27;;;6.27;;
70067;SDS011;57425;51.616;6.680;2022-11-20T03:27:34;11.07;;;6.37;;
70067;SDS011;57425;51.616;6.680;2022-11-20T03:30:00;13.03;;;6.63;;
70067;SDS011;57425;51.616;6.680;2022-11-20T03:32:26;15.30;;;6.70;;
70067;SDS011;57425;51.616;6.680;2022-11-20T03:34:51;12.87;;;6.87;;
70067;SDS011;57425;51.616;6.680;2022-11-20T03:37:17;12.20;;;6.33;;
70067;SDS011;57425;51.616;6.680;2022-11-20T03:39:42;14.23;;;6.13;;
70067;SDS011;57425;51.616;6.680;2022-11-20T03:42:08;14.13;;;6.67;;
70067;SDS011;57425;51.616;6.680;2022-11-20T03:44:54;23.20;;;7.60;;
70067;SDS011;57425;51.616;6.680;2022-11-20T03:47:19;12.23;;;6.37;;
70067;SDS011;57425;51.616;6.680;2022-11-20T03:49:45;14.37;;;6.20;;
70067;SDS011;57425;51.616;6.680;2022-11-20T03:52:11;9.03;;;5.57;;
70067;SDS011;57425;51.616;6.680;2022-11-20T03:54:36;11.20;;;6.00;;
70067;SDS011;57425;51.616;6.680;2022-11-20T03:57:02;11.53;;;5.70;;
70067;SDS011;57425;51.616;6.680;2022-11-20T03:59:28;13.53;;;7.10;;
70067;SDS011;57425;51.616;6.680;2022-11-20T04:01:53;17.57;;;7.63;;
70067;SDS011;57425;51.616;6.680;2022-11-20T04:04:19;10.87;;;6.40;;
70067;SDS011;57425;51.616;6.680;2022-11-20T04:06:44;15.03;;;6.57;;
70067;SDS011;57425;51.616;6.680;2022-11-20T04:09:10;16.30;;;6.60;;
70067;SDS011;57425;51.616;6.680;2022-11-20T04:11:36;12.47;;;6.23;;
70067;SDS011;57425;51.616;6.680;2022-11-20T04:14:05;12.90;;;6.27;;
70067;SDS011;57425;51.616;6.680;2022-11-20T04:16:33;14.63;;;6.37;;
70067;SDS011;57425;51.616;6.680;2022-11-20T04:19:00;11.40;;;6.27;;
70067;SDS011;57425;51.616;6.680;2022-11-20T04:21:28;18.97;;;6.03;;
70067;SDS011;57425;51.616;6.680;2022-11-20T04:23:54;14.53;;;6.57;;
70067;SDS011;57425;51.616;6.680;2022-11-20T04:26:21;12.07;;;5.93;;
70067;SDS011;57425;51.616;6.680;2022-11-20T04:28:48;12.27;;;6.27;;
70067;SDS011;57425;51.616;6.680;2022-11-20T04:31:16;8.63;;;5.30;;
70067;SDS011;57425;51.616;6.680;2022-11-20T04:33:46;16.20;;;8.07;;
70067;SDS011;57425;51.616;6.680;2022-11-20T04:36:12;12.00;;;6.40;;
70067;SDS011;57425;51.616;6.680;2022-11-20T04:38:40;11.07;;;6.30;;
70067;SDS011;57425;51.616;6.680;2022-11-20T04:41:07;12.23;;;5.97;;
70067;SDS011;57425;51.616;6.680;2022-11-20T04:43:37;11.97;;;5.57;;
70067;SDS011;57425;51.616;6.680;2022-11-20T04:46:03;12.97;;;6.70;;
70067;SDS011;57425;51.616;6.680;2022-11-20T04:48:29;11.93;;;5.87;;
70067;SDS011;57425;51.616;6.680;2022-11-20T04:50:54;12.47;;;6.10;;
70067;SDS011;57425;51.616;6.680;2022-11-20T04:53:20;13.80;;;6.13;;
70067;SDS011;57425;51.616;6.680;2022-11-20T04:55:46;11.97;;;6.07;;
70067;SDS011;57425;51.616;6.680;2022-11-20T04:58:13;20.87;;;6.20;;
70067;SDS011;57425;51.616;6.680;2022-11-20T05:00:39;10.10;;;6.13;;
70067;SDS011;57425;51.616;6.680;2022-11-20T05:03:05;13.57;;;6.37;;
70067;SDS011;57425;51.616;6.680;2022-11-20T05:05:31;13.67;;;6.53;;
70067;SDS011;57425;51.616;6.680;2022-11-20T05:07:59;15.30;;;6.67;;
70067;SDS011;57425;51.616;6.680;2022-11-20T05:10:26;13.73;;;5.83;;
70067;SDS011;57425;51.616;6.680;2022-11-20T05:12:52;11.40;;;5.77;;
70067;SDS011;57425;51.616;6.680;2022-11-20T05:15:18;13.00;;;5.77;;
70067;SDS011;57425;51.616;6.680;2022-11-20T05:17:48;13.33;;;5.67;;
70067;SDS011;57425;51.616;6.680;2022-11-20T05:20:17;12.43;;;6.17;;
70067;SDS011;57425;51.616;6.680;2022-11-20T05:22:43;12.80;;;5.90;;
70067;SDS011;57425;51.616;6.680;2022-11-20T05:25:09;12.93;;;6.53;;
70067;SDS011;57425;51.616;6.680;2022-11-20T05:27:35;15.60;;;6.53;;
70067;SDS011;57425;51.616;6.680;2022-11-20T05:30:01;13.17;;;6.27;;
70067;SDS011;57425;51.616;6.680;2022-11-20T05:32:28;13.17;;;6.90;;
70067;SDS011;57425;51.616;6.680;2022-11-20T05:34:54;15.47;;;6.40;;
70067;SDS011;57425;51.616;6.680;2022-11-20T05:37:20;12.93;;;5.80;;
70067;SDS011;57425;51.616;6.680;2022-11-20T05:39:45;17.53;;;6.37;;
70067;SDS011;57425;51.616;6.680;2022-11-20T05:42:11;14.00;;;5.77;;
70067;SDS011;57425;51.616;6.680;2022-11-20T05:44:55;13.27;;;6.27;;
70067;SDS011;57425;51.616;6.680;2022-11-20T05:47:26;15.97;;;6.73;;
70067;SDS011;57425;51.616;6.680;2022-11-20T05:49:53;13.17;;;6.03;;
70067;SDS011;57425;51.616;6.680;2022-11-20T05:52:18;11.17;;;5.93;;
70067;SDS011;57425;51.616;6.680;2022-11-20T05:54:44;11.83;;;5.97;;
70067;SDS011;57425;51.616;6.680;2022-11-20T05:57:10;12.50;;;5.80;;
70067;SDS011;57425;51.616;6.680;2022-11-20T05:59:35;11.80;;;5.77;;
70067;SDS011;57425;51.616;6.680;2022-11-20T06:02:01;13.43;;;7.53;;
70067;SDS011;57425;51.616;6.680;2022-11-20T06:04:26;11.87;;;5.70;;
70067;SDS011;57425;51.616;6.680;2022-11-20T06:06:52;12.70;;;5.90;;
70067;SDS011;57425;51.616;6.680;2022-11-20T06:09:18;14.23;;;6.87;;
70067;SDS011;57425;51.616;6.680;2022-11-20T06:11:43;11.90;;;6.33;;
70067;SDS011;57425;51.616;6.680;2022-11-20T06:14:10;15.50;;;5.83;;
70067;SDS011;57425;51.616;6.680;2022-11-20T06:16:35;10.27;;;5.30;;
70067;SDS011;57425;51.616;6.680;2022-11-20T06:19:01;14.27;;;7.27;;
70067;SDS011;57425;51.616;6.680;2022-11-20T06:21:27;13.27;;;6.17;;
70067;SDS011;57425;51.616;6.680;2022-11-20T06:23:52;13.80;;;6.87;;
70067;SDS011;57425;51.616;6.680;2022-11-20T06:26:22;12.47;;;6.00;;
70067;SDS011;57425;51.616;6.680;2022-11-20T06:28:50;12.63;;;6.00;;
70067;SDS011;57425;51.616;6.680;2022-11-20T06:31:17;13.63;;;6.30;;
70067;SDS011;57425;51.616;6.680;2022-11-20T06:33:45;17.23;;;6.20;;
70067;SDS011;57425;51.616;6.680;2022-11-20T06:36:12;13.20;;;7.07;;
70067;SDS011;57425;51.616;6.680;2022-11-20T06:38:38;12.47;;;6.37;;
70067;SDS011;57425;51.616;6.680;2022-11-20T06:41:05;15.67;;;7.03;;
70067;SDS011;57425;51.616;6.680;2022-11-20T06:43:32;13.87;;;6.57;;
70067;SDS011;57425;51.616;6.680;2022-11-20T06:45:58;12.20;;;6.40;;
70067;SDS011;57425;51.616;6.680;2022-11-20T06:48:25;12.53;;;6.37;;
70067;SDS011;57425;51.616;6.680;2022-11-20T06:50:52;11.30;;;5.93;;
70067;SDS011;57425;51.616;6.680;2022-11-20T06:53:17;12.80;;;6.57;;
70067;SDS011;57425;51.616;6.680;2022-11-20T06:55:43;12.13;;;6.03;;
70067;SDS011;57425;51.616;6.680;2022-11-20T06:58:10;10.40;;;5.53;;
70067;SDS011;57425;51.616;6.680;2022-11-20T07:00:36;12.73;;;6.73;;
70067;SDS011;57425;51.616;6.680;2022-11-20T07:03:02;15.13;;;7.20;;
70067;SDS011;57425;51.616;6.680;2022-11-20T07:05:29;12.87;;;5.60;;
70067;SDS011;57425;51.616;6.680;2022-11-20T07:07:57;8.67;;;5.27;;
70067;SDS011;57425;51.616;6.680;2022-11-20T07:10:23;10.60;;;5.57;;
70067;SDS011;57425;51.616;6.680;2022-11-20T07:12:50;11.77;;;5.57;;
70067;SDS011;57425;51.616;6.680;2022-11-20T07:15:17;10.73;;;5.77;;
70067;SDS011;57425;51.616;6.680;2022-11-20T07:17:43;11.13;;;6.10;;
70067;SDS011;57425;51.616;6.680;2022-11-20T07:20:09;12.77;;;5.87;;
70067;SDS011;57425;51.616;6.680;2022-11-20T07:22:35;22.13;;;5.87;;
70067;SDS011;57425;51.616;6.680;2022-11-20T07:25:01;9.90;;;5.87;;
70067;SDS011;57425;51.616;6.680;2022-11-20T07:27:27;13.97;;;6.17;;
70067;SDS011;57425;51.616;6.680;2022-11-20T07:29:53;10.27;;;5.23;;
70067;SDS011;57425;51.616;6.680;2022-11-20T07:32:18;16.50;;;6.37;;
70067;SDS011;57425;51.616;6.680;2022-11-20T07:34:44;14.03;;;7.17;;
70067;SDS011;57425;51.616;6.680;2022-11-20T07:37:10;15.73;;;6.70;;
70067;SDS011;57425;51.616;6.680;2022-11-20T07:39:35;15.03;;;7.80;;
70067;SDS011;57425;51.616;6.680;2022-11-20T07:42:01;14.07;;;7.00;;
70067;SDS011;57425;51.616;6.680;2022-11-20T07:44:28;13.47;;;6.40;;
70067;SDS011;57425;51.616;6.680;2022-11-20T07:46:53;12.03;;;6.23;;
70067;SDS011;57425;51.616;6.680;2022-11-20T07:49:19;13.13;;;6.67;;
70067;SDS011;57425;51.616;6.680;2022-11-20T07:51:45;17.67;;;7.53;;
70067;SDS011;57425;51.616;6.680;2022-11-20T07:54:10;15.70;;;6.83;;
70067;SDS011;57425;51.616;6.680;2022-11-20T07:56:36;14.93;;;5.63;;
70067;SDS011;57425;51.616;6.680;2022-11-20T07:59:01;16.63;;;5.77;;
70067;SDS011;57425;51.616;6.680;2022-11-20T08:01:28;10.90;;;5.53;;
70067;SDS011;57425;51.616;6.680;2022-11-20T08:03:54;22.80;;;10.37;;
70067;SDS011;57425;51.616;6.680;2022-11-20T08:06:19;18.37;;;8.20;;
70067;SDS011;57425;51.616;6.680;2022-11-20T08:08:45;13.27;;;6.30;;
70067;SDS011;57425;51.616;6.680;2022-11-20T08:11:11;16.10;;;7.47;;
70067;SDS011;57425;51.616;6.680;2022-11-20T08:13:55;14.03;;;7.20;;
70067;SDS011;57425;51.616;6.680;2022-11-20T08:19:08;13.87;;;6.90;;
70067;SDS011;57425;51.616;6.680;2022-11-20T08:21:34;14.93;;;7.47;;
70067;SDS011;57425;51.616;6.680;2022-11-20T08:24:00;12.67;;;8.23;;
70067;SDS011;57425;51.616;6.680;2022-11-20T08:26:26;16.20;;;6.57;;
70067;SDS011;57425;51.616;6.680;2022-11-20T08:28:55;14.60;;;7.40;;
70067;SDS011;57425;51.616;6.680;2022-11-20T08:31:22;13.40;;;6.73;;
70067;SDS011;57425;51.616;6.680;2022-11-20T08:33:50;17.80;;;7.27;;
70067;SDS011;57425;51.616;6.680;2022-11-20T08:36:16;14.03;;;6.60;;
70067;SDS011;57425;51.616;6.680;2022-11-20T08:38:46;11.37;;;6.10;;
70067;SDS011;57425;51.616;6.680;2022-11-20T08:41:13;13.43;;;6.93;;
70067;SDS011;57425;51.616;6.680;2022-11-20T08:44:02;16.53;;;8.20;;
70067;SDS011;57425;51.616;6.680;2022-11-20T08:46:38;15.10;;;7.27;;
70067;SDS011;57425;51.616;6.680;2022-11-20T08:49:12;17.85;;;7.82;;
70067;SDS011;57425;51.616;6.680;2022-11-20T08:51:40;16.30;;;7.20;;
70067;SDS011;57425;51.616;6.680;2022-11-20T08:54:06;17.67;;;7.83;;
70067;SDS011;57425;51.616;6.680;2022-11-20T08:56:32;18.00;;;7.43;;
70067;SDS011;57425;51.616;6.680;2022-11-20T08:58:59;23.30;;;8.20;;
70067;SDS011;57425;51.616;6.680;2022-11-20T09:01:24;19.70;;;8.60;;
70067;SDS011;57425;51.616;6.680;2022-11-20T09:03:51;15.17;;;7.77;;
70067;SDS011;57425;51.616;6.680;2022-11-20T09:06:16;15.43;;;7.47;;
70067;SDS011;57425;51.616;6.680;2022-11-20T09:08:42;24.33;;;8.53;;
70067;SDS011;57425;51.616;6.680;2022-11-20T09:11:08;20.07;;;8.43;;
70067;SDS011;57425;51.616;6.680;2022-11-20T09:13:35;21.10;;;8.90;;
70067;SDS011;57425;51.616;6.680;2022-11-20T09:16:05;25.93;;;9.90;;
70067;SDS011;57425;51.616;6.680;2022-11-20T09:18:33;20.83;;;9.17;;
70067;SDS011;57425;51.616;6.680;2022-11-20T09:21:02;24.47;;;8.57;;
70067;SDS011;57425;51.616;6.680;2022-11-20T09:23:34;19.03;;;9.07;;
70067;SDS011;57425;51.616;6.680;2022-11-20T09:26:03;16.23;;;8.40;;
70067;SDS011;57425;51.616;6.680;2022-11-20T09:28:30;19.67;;;8.37;;
70067;SDS011;57425;51.616;6.680;2022-11-20T09:30:56;23.33;;;8.80;;
70067;SDS011;57425;51.616;6.680;2022-11-20T09:33:23;15.97;;;8.57;;
70067;SDS011;57425;51.616;6.680;2022-11-20T09:35:49;19.07;;;8.30;;
70067;SDS011;57425;51.616;6.680;2022-11-20T09:38:15;15.97;;;8.23;;
70067;SDS011;57425;51.616;6.680;2022-11-20T09:40:44;15.83;;;7.77;;
70067;SDS011;57425;51.616;6.680;2022-11-20T09:46:29;17.03;;;8.40;;
70067;SDS011;57425;51.616;6.680;2022-11-20T09:52:01;21.13;;;9.05;;
70067;SDS011;57425;51.616;6.680;2022-11-20T09:54:51;19.73;;;9.73;;
70067;SDS011;57425;51.616;6.680;2022-11-20T09:57:20;23.43;;;9.77;;
70067;SDS011;57425;51.616;6.680;2022-11-20T09:59:50;19.37;;;9.67;;
70067;SDS011;57425;51.616;6.680;2022-11-20T10:02:27;20.50;;;8.80;;
70067;SDS011;57425;51.616;6.680;2022-11-20T10:05:10;22.83;;;9.17;;
70067;SDS011;57425;51.616;6.680;2022-11-20T10:07:49;21.67;;;10.00;;
70067;SDS011;57425;51.616;6.680;2022-11-20T10:21:32;22.73;;;9.13;;
70067;SDS011;57425;51.616;6.680;2022-11-20T10:29:39;19.93;;;9.50;;
70067;SDS011;57425;51.616;6.680;2022-11-20T10:37:30;18.43;;;9.07;;
70067;SDS011;57425;51.616;6.680;2022-11-20T10:40:22;20.70;;;9.07;;
70067;SDS011;57425;51.616;6.680;2022-11-20T10:45:52;22.27;;;8.07;;
70067;SDS011;57425;51.616;6.680;2022-11-20T10:48:24;21.00;;;7.53;;
70067;SDS011;57425;51.616;6.680;2022-11-20T10:53:43;22.23;;;8.13;;
70067;SDS011;57425;51.616;6.680;2022-11-20T11:01:43;22.88;;;8.73;;
70067;SDS011;57425;51.616;6.680;2022-11-20T11:04:19;16.27;;;7.40;;
70067;SDS011;57425;51.616;6.680;2022-11-20T11:12:52;14.20;;;7.23;;
70067;SDS011;57425;51.616;6.680;2022-11-20T11:15:28;20.03;;;7.97;;
70067;SDS011;57425;51.616;6.680;2022-11-20T11:18:04;14.53;;;7.47;;
70067;SDS011;57425;51.616;6.680;2022-11-20T11:20:33;19.00;;;7.53;;
70067;SDS011;57425;51.616;6.680;2022-11-20T11:22:59;17.17;;;7.00;;
70067;SDS011;57425;51.616;6.680;2022-11-20T11:25:32;14.23;;;7.20;;
70067;SDS011;57425;51.616;6.680;2022-11-20T11:28:00;17.17;;;7.63;;
70067;SDS011;57425;51.616;6.680;2022-11-20T11:30:44;18.07;;;7.40;;
70067;SDS011;57425;51.616;6.680;2022-11-20T11:33:11;20.97;;;6.97;;
70067;SDS011;57425;51.616;6.680;2022-11-20T11:35:45;19.13;;;8.48;;
70067;SDS011;57425;51.616;6.680;2022-11-20T11:38:14;20.57;;;7.43;;
70067;SDS011;57425;51.616;6.680;2022-11-20T11:40:44;21.23;;;8.53;;
70067;SDS011;57425;51.616;6.680;2022-11-20T11:43:21;21.00;;;7.53;;
70067;SDS011;57425;51.616;6.680;2022-11-20T11:46:14;17.20;;;7.67;;
70067;SDS011;57425;51.616;6.680;2022-11-20T11:52:18;22.57;;;9.03;;
70067;SDS011;57425;51.616;6.680;2022-11-20T11:54:53;17.10;;;8.27;;
70067;SDS011;57425;51.616;6.680;2022-11-20T11:57:23;21.90;;;9.17;;
70067;SDS011;57425;51.616;6.680;2022-11-20T12:05:28;19.57;;;8.17;;
70067;SDS011;57425;51.616;6.680;2022-11-20T12:08:05;23.17;;;9.57;;
70067;SDS011;57425;51.616;6.680;2022-11-20T12:10:48;20.57;;;9.13;;
70067;SDS011;57425;51.616;6.680;2022-11-20T12:16:00;19.07;;;8.57;;
70067;SDS011;57425;51.616;6.680;2022-11-20T12:18:27;20.53;;;8.83;;
70067;SDS011;57425;51.616;6.680;2022-11-20T12:34:19;21.40;;;9.80;;
70067;SDS011;57425;51.616;6.680;2022-11-20T12:39:33;21.77;;;9.77;;
70067;SDS011;57425;51.616;6.680;2022-11-20T12:42:05;25.00;;;9.47;;
70067;SDS011;57425;51.616;6.680;2022-11-20T12:45:45;21.83;;;8.87;;
70067;SDS011;57425;51.616;6.680;2022-11-20T12:47:55;25.47;;;10.07;;
70067;SDS011;57425;51.616;6.680;2022-11-20T12:50:34;26.05;;;9.80;;
70067;SDS011;57425;51.616;6.680;2022-11-20T12:56:08;20.57;;;9.77;;
70067;SDS011;57425;51.616;6.680;2022-11-20T13:07:10;23.67;;;9.20;;
70067;SDS011;57425;51.616;6.680;2022-11-20T13:09:43;24.63;;;9.40;;
70067;SDS011;57425;51.616;6.680;2022-11-20T13:18:01;17.83;;;8.53;;
70067;SDS011;57425;51.616;6.680;2022-11-20T13:20:30;23.30;;;9.30;;
70067;SDS011;57425;51.616;6.680;2022-11-20T13:22:58;21.30;;;9.23;;
70067;SDS011;57425;51.616;6.680;2022-11-20T13:27:54;21.17;;;8.83;;
70067;SDS011;57425;51.616;6.680;2022-11-20T13:30:22;23.57;;;9.33;;
70067;SDS011;57425;51.616;6.680;2022-11-20T13:32:53;20.70;;;9.50;;
70067;SDS011;57425;51.616;6.680;2022-11-20T13:35:24;24.77;;;9.07;;
70067;SDS011;57425;51.616;6.680;2022-11-20T13:37:58;23.37;;;9.10;;
70067;SDS011;57425;51.616;6.680;2022-11-20T13:40:29;21.43;;;8.07;;
70067;SDS011;57425;51.616;6.680;2022-11-20T13:42:56;23.83;;;9.77;;
70067;SDS011;57425;51.616;6.680;2022-11-20T13:45:41;22.43;;;8.57;;
70067;SDS011;57425;51.616;6.680;2022-11-20T13:48:19;25.80;;;8.87;;
70067;SDS011;57425;51.616;6.680;2022-11-20T13:51:07;27.10;;;8.53;;
70067;SDS011;57425;51.616;6.680;2022-11-20T13:59:57;22.83;;;9.25;;
70067;SDS011;57425;51.616;6.680;2022-11-20T14:02:10;20.67;;;8.80;;
70067;SDS011;57425;51.616;6.680;2022-11-20T14:04:46;23.97;;;10.37;;
70067;SDS011;57425;51.616;6.680;2022-11-20T14:07:14;21.27;;;8.47;;
70067;SDS011;57425;51.616;6.680;2022-11-20T14:09:48;22.03;;;9.73;;
70067;SDS011;57425;51.616;6.680;2022-11-20T14:12:17;28.07;;;8.80;;
70067;SDS011;57425;51.616;6.680;2022-11-20T14:14:48;19.43;;;8.43;;
70067;SDS011;57425;51.616;6.680;2022-11-20T14:19:54;17.73;;;7.93;;
70067;SDS011;57425;51.616;6.680;2022-11-20T14:22:24;20.63;;;9.30;;
70067;SDS011;57425;51.616;6.680;2022-11-20T14:27:57;22.48;;;7.88;;
70067;SDS011;57425;51.616;6.680;2022-11-20T14:30:57;22.80;;;8.83;;
70067;SDS011;57425;51.616;6.680;2022-11-20T14:33:16;21.77;;;10.00;;
70067;SDS011;57425;51.616;6.680;2022-11-20T14:35:52;17.67;;;8.67;;
70067;SDS011;57425;51.616;6.680;2022-11-20T14:38:26;21.07;;;9.43;;
70067;SDS011;57425;51.616;6.680;2022-11-20T14:40:54;21.00;;;8.57;;
70067;SDS011;57425;51.616;6.680;2022-11-20T14:43:34;20.90;;;8.40;;
70067;SDS011;57425;51.616;6.680;2022-11-20T14:46:04;23.23;;;8.40;;
70067;SDS011;57425;51.616;6.680;2022-11-20T14:48:39;23.57;;;8.70;;
70067;SDS011;57425;51.616;6.680;2022-11-20T14:51:31;22.43;;;8.90;;
70067;SDS011;57425;51.616;6.680;2022-11-20T14:56:42;20.17;;;8.20;;
70067;SDS011;57425;51.616;6.680;2022-11-20T14:59:26;20.70;;;8.97;;
70067;SDS011;57425;51.616;6.680;2022-11-20T15:01:57;17.07;;;7.97;;
70067;SDS011;57425;51.616;6.680;2022-11-20T15:04:26;22.87;;;9.37;;
70067;SDS011;57425;51.616;6.680;2022-11-20T15:06:53;25.97;;;10.53;;
70067;SDS011;57425;51.616;6.680;2022-11-20T15:09:21;20.63;;;9.57;;
70067;SDS011;57425;51.616;6.680;2022-11-20T15:12:01;25.70;;;10.00;;
70067;SDS011;57425;51.616;6.680;2022-11-20T15:14:28;21.80;;;8.53;;
70067;SDS011;57425;51.616;6.680;2022-11-20T15:16:55;26.20;;;10.07;;
70067;SDS011;57425;51.616;6.680;2022-11-20T15:19:23;27.40;;;9.50;;
70067;SDS011;57425;51.616;6.680;2022-11-20T15:21:49;26.43;;;9.90;;
70067;SDS011;57425;51.616;6.680;2022-11-20T15:24:16;23.53;;;9.83;;
70067;SDS011;57425;51.616;6.680;2022-11-20T15:26:42;23.03;;;10.10;;
70067;SDS011;57425;51.616;6.680;2022-11-20T15:29:12;22.13;;;9.77;;
70067;SDS011;57425;51.616;6.680;2022-11-20T15:31:39;22.20;;;9.37;;
70067;SDS011;57425;51.616;6.680;2022-11-20T15:34:13;27.20;;;10.33;;
70067;SDS011;57425;51.616;6.680;2022-11-20T15:36:40;22.27;;;9.43;;
70067;SDS011;57425;51.616;6.680;2022-11-20T15:39:06;23.87;;;9.53;;
70067;SDS011;57425;51.616;6.680;2022-11-20T15:41:33;20.27;;;9.40;;
70067;SDS011;57425;51.616;6.680;2022-11-20T15:44:03;24.20;;;9.63;;
70067;SDS011;57425;51.616;6.680;2022-11-20T15:46:30;20.70;;;8.27;;
70067;SDS011;57425;51.616;6.680;2022-11-20T15:51:38;20.20;;;8.83;;
70067;SDS011;57425;51.616;6.680;2022-11-20T15:54:11;20.97;;;8.43;;
70067;SDS011;57425;51.616;6.680;2022-11-20T15:56:43;23.80;;;8.87;;
70067;SDS011;57425;51.616;6.680;2022-11-20T15:59:08;28.23;;;10.00;;
70067;SDS011;57425;51.616;6.680;2022-11-20T16:01:34;19.40;;;8.73;;
70067;SDS011;57425;51.616;6.680;2022-11-20T16:04:00;23.90;;;9.60;;
70067;SDS011;57425;51.616;6.680;2022-11-20T16:06:27;26.57;;;9.50;;
70067;SDS011;57425;51.616;6.680;2022-11-20T16:08:52;27.50;;;11.27;;
70067;SDS011;57425;51.616;6.680;2022-11-20T16:11:18;25.87;;;9.43;;
70067;SDS011;57425;51.616;6.680;2022-11-20T16:13:43;20.47;;;8.70;;
70067;SDS011;57425;51.616;6.680;2022-11-20T16:16:28;23.10;;;9.37;;
70067;SDS011;57425;51.616;6.680;2022-11-20T16:18:55;28.63;;;9.90;;
70067;SDS011;57425;51.616;6.680;2022-11-20T16:21:20;24.07;;;10.30;;
70067;SDS011;57425;51.616;6.680;2022-11-20T16:23:52;20.33;;;8.53;;
70067;SDS011;57425;51.616;6.680;2022-11-20T16:26:18;31.07;;;10.47;;
70067;SDS011;57425;51.616;6.680;2022-11-20T16:28:44;22.83;;;10.07;;
70067;SDS011;57425;51.616;6.680;2022-11-20T16:31:11;30.83;;;10.83;;
70067;SDS011;57425;51.616;6.680;2022-11-20T16:33:38;27.80;;;9.97;;
70067;SDS011;57425;51.616;6.680;2022-11-20T16:36:10;25.60;;;9.77;;
70067;SDS011;57425;51.616;6.680;2022-11-20T16:38:38;28.07;;;10.93;;
70067;SDS011;57425;51.616;6.680;2022-11-20T16:41:03;27.40;;;9.30;;
70067;SDS011;57425;51.616;6.680;2022-11-20T16:43:30;26.30;;;9.37;;